sensor_id;sensor_type;location;lat;lon;timestamp;pressure;altitude;pressure_sealevel;temperature;humidity
52957;BME280;38819;42.692;23.342;2024-03-17T00:00:40;95540.81;;;9.50;64.38
52957;BME280;38819;42.692;23.342;2024-03-17T00:03:06;95539.19;;;9.49;64.30
52957;BME280;38819;42.692;23.342;2024-03-17T00:05:35;95554.00;;;9.51;64.17
52957;BME280;38819;42.692;23.342;2024-03-17T00:08:02;95541.34;;;9.46;64.10
52957;BME280;38819;42.692;23.342;2024-03-17T00:10:30;95543.53;;;9.44;64.39
52957;BME280;38819;42.692;23.342;2024-03-17T00:12:55;95544.59;;;9.43;64.28
52957;BME280;38819;42.692;23.342;2024-03-17T00:15:22;95542.94;;;9.53;64.38
52957;BME280;38819;42.692;23.342;2024-03-17T00:17:47;95544.31;;;9.45;65.38
52957;BME280;38819;42.692;23.342;2024-03-17T00:20:13;95547.06;;;9.40;65.59
52957;BME280;38819;42.692;23.342;2024-03-17T00:22:48;95536.78;;;9.42;65.20
52957;BME280;38819;42.692;23.342;2024-03-17T00:25:14;95540.00;;;9.49;65.01
52957;BME280;38819;42.692;23.342;2024-03-17T00:27:40;95537.63;;;9.37;65.59
52957;BME280;38819;42.692;23.342;2024-03-17T00:30:09;95539.75;;;9.40;65.78
52957;BME280;38819;42.692;23.342;2024-03-17T00:32:41;95530.34;;;9.38;65.71
52957;BME280;38819;42.692;23.342;2024-03-17T00:35:10;95533.28;;;9.41;65.62
52957;BME280;38819;42.692;23.342;2024-03-17T00:37:39;95530.66;;;9.31;65.73
52957;BME280;38819;42.692;23.342;2024-03-17T00:40:05;95526.34;;;9.30;66.08
52957;BME280;38819;42.692;23.342;2024-03-17T00:42:32;95537.38;;;9.34;66.00
52957;BME280;38819;42.692;23.342;2024-03-17T00:44:57;95530.75;;;9.11;66.38
52957;BME280;38819;42.692;23.342;2024-03-17T00:47:25;95533.41;;;9.16;66.69
52957;BME280;38819;42.692;23.342;2024-03-17T00:49:50;95542.84;;;9.13;66.47
52957;BME280;38819;42.692;23.342;2024-03-17T00:52:16;95539.91;;;9.04;67.04
52957;BME280;38819;42.692;23.342;2024-03-17T00:54:42;95540.97;;;9.08;66.73
52957;BME280;38819;42.692;23.342;2024-03-17T00:57:07;95538.00;;;9.10;66.13
52957;BME280;38819;42.692;23.342;2024-03-17T00:59:33;95535.06;;;9.06;66.68
52957;BME280;38819;42.692;23.342;2024-03-17T01:01:58;95536.69;;;9.07;66.20
52957;BME280;38819;42.692;23.342;2024-03-17T01:04:23;95542.63;;;8.99;66.85
52957;BME280;38819;42.692;23.342;2024-03-17T01:06:49;95545.63;;;8.87;67.42
52957;BME280;38819;42.692;23.342;2024-03-17T01:09:14;95542.94;;;8.87;67.62
52957;BME280;38819;42.692;23.342;2024-03-17T01:11:40;95545.09;;;8.90;66.96
52957;BME280;38819;42.692;23.342;2024-03-17T01:14:05;95537.53;;;8.87;67.03
52957;BME280;38819;42.692;23.342;2024-03-17T01:16:33;95542.41;;;8.85;67.19
52957;BME280;38819;42.692;23.342;2024-03-17T01:18:58;95542.41;;;8.85;67.32
52957;BME280;38819;42.692;23.342;2024-03-17T01:21:23;95538.09;;;8.79;67.51
52957;BME280;38819;42.692;23.342;2024-03-17T01:23:49;95539.44;;;8.82;67.26
52957;BME280;38819;42.692;23.342;2024-03-17T01:26:15;95537.31;;;8.79;67.72
52957;BME280;38819;42.692;23.342;2024-03-17T01:28:40;95537.84;;;8.76;67.94
52957;BME280;38819;42.692;23.342;2024-03-17T01:31:06;95537.03;;;8.70;68.32
52957;BME280;38819;42.692;23.342;2024-03-17T01:33:31;95542.41;;;8.70;68.55
52957;BME280;38819;42.692;23.342;2024-03-17T01:35:57;95541.34;;;8.76;68.38
52957;BME280;38819;42.692;23.342;2024-03-17T01:38:22;95539.16;;;8.78;68.00
52957;BME280;38819;42.692;23.342;2024-03-17T01:40:48;95539.72;;;8.75;68.05
52957;BME280;38819;42.692;23.342;2024-03-17T01:43:13;95535.16;;;8.76;68.11
52957;BME280;38819;42.692;23.342;2024-03-17T01:45:38;95539.75;;;8.60;68.09
52957;BME280;38819;42.692;23.342;2024-03-17T01:48:10;95544.06;;;8.56;68.66
52957;BME280;38819;42.692;23.342;2024-03-17T01:50:39;95538.41;;;8.62;68.36
52957;BME280;38819;42.692;23.342;2024-03-17T01:53:05;95545.13;;;8.60;68.50
52957;BME280;38819;42.692;23.342;2024-03-17T01:55:37;95545.94;;;8.60;68.24
52957;BME280;38819;42.692;23.342;2024-03-17T01:58:03;95533.56;;;8.54;69.04
52957;BME280;38819;42.692;23.342;2024-03-17T02:00:29;95537.84;;;8.55;68.60
52957;BME280;38819;42.692;23.342;2024-03-17T02:02:56;95532.75;;;8.48;68.81
52957;BME280;38819;42.692;23.342;2024-03-17T02:05:22;95532.72;;;8.38;69.30
52957;BME280;38819;42.692;23.342;2024-03-17T02:07:48;95536.78;;;8.41;69.09
52957;BME280;38819;42.692;23.342;2024-03-17T02:10:13;95543.50;;;8.28;69.69
52957;BME280;38819;42.692;23.342;2024-03-17T02:12:39;95541.09;;;8.26;69.52
52957;BME280;38819;42.692;23.342;2024-03-17T02:15:06;95545.41;;;8.27;69.64
52957;BME280;38819;42.692;23.342;2024-03-17T02:17:32;95546.72;;;8.25;69.89
52957;BME280;38819;42.692;23.342;2024-03-17T02:19:58;95547.56;;;8.25;69.77
52957;BME280;38819;42.692;23.342;2024-03-17T02:22:25;95540.03;;;8.27;69.60
52957;BME280;38819;42.692;23.342;2024-03-17T02:24:50;95549.44;;;8.30;69.65
52957;BME280;38819;42.692;23.342;2024-03-17T02:27:16;95542.44;;;8.34;69.46
52957;BME280;38819;42.692;23.342;2024-03-17T02:29:41;95545.66;;;8.31;69.66
52957;BME280;38819;42.692;23.342;2024-03-17T02:32:07;95544.88;;;8.25;69.84
52957;BME280;38819;42.692;23.342;2024-03-17T02:34:36;95541.63;;;8.23;69.59
52957;BME280;38819;42.692;23.342;2024-03-17T02:37:03;95544.56;;;8.22;69.80
52957;BME280;38819;42.692;23.342;2024-03-17T02:39:30;95536.78;;;8.15;70.01
52957;BME280;38819;42.692;23.342;2024-03-17T02:42:08;95546.22;;;8.12;70.17
52957;BME280;38819;42.692;23.342;2024-03-17T02:44:36;95535.44;;;8.12;70.08
52957;BME280;38819;42.692;23.342;2024-03-17T02:47:02;95536.25;;;8.08;70.36
52957;BME280;38819;42.692;23.342;2024-03-17T02:49:33;95539.72;;;8.03;70.53
52957;BME280;38819;42.692;23.342;2024-03-17T02:52:09;95543.78;;;8.11;70.34
52957;BME280;38819;42.692;23.342;2024-03-17T02:54:36;95530.88;;;8.13;70.32
52957;BME280;38819;42.692;23.342;2024-03-17T02:57:02;95531.41;;;8.10;70.27
52957;BME280;38819;42.692;23.342;2024-03-17T02:59:28;95529.25;;;8.12;70.01
52957;BME280;38819;42.692;23.342;2024-03-17T03:01:54;95530.34;;;8.06;70.14
52957;BME280;38819;42.692;23.342;2024-03-17T03:04:20;95530.88;;;8.13;70.45
52957;BME280;38819;42.692;23.342;2024-03-17T03:06:46;95525.75;;;8.01;70.63
52957;BME280;38819;42.692;23.342;2024-03-17T03:09:11;95524.69;;;7.92;70.85
52957;BME280;38819;42.692;23.342;2024-03-17T03:11:44;95526.00;;;7.94;70.81
52957;BME280;38819;42.692;23.342;2024-03-17T03:14:09;95528.69;;;7.84;71.12
52957;BME280;38819;42.692;23.342;2024-03-17T03:16:34;95530.00;;;7.71;71.93
52957;BME280;38819;42.692;23.342;2024-03-17T03:19:00;95531.88;;;7.60;72.10
52957;BME280;38819;42.692;23.342;2024-03-17T03:21:26;95534.03;;;7.58;71.93
52957;BME280;38819;42.692;23.342;2024-03-17T03:23:51;95532.94;;;7.54;72.22
52957;BME280;38819;42.692;23.342;2024-03-17T03:26:17;95525.13;;;7.42;72.46
52957;BME280;38819;42.692;23.342;2024-03-17T03:28:43;95525.91;;;7.43;72.83
52957;BME280;38819;42.692;23.342;2024-03-17T03:31:13;95528.59;;;7.43;72.90
52957;BME280;38819;42.692;23.342;2024-03-17T03:33:40;95536.66;;;7.43;73.03
52957;BME280;38819;42.692;23.342;2024-03-17T03:36:13;95531.31;;;7.48;73.39
52957;BME280;38819;42.692;23.342;2024-03-17T03:38:39;95536.69;;;7.48;73.14
52957;BME280;38819;42.692;23.342;2024-03-17T03:41:09;95534.00;;;7.48;72.95
52957;BME280;38819;42.692;23.342;2024-03-17T03:43:34;95541.78;;;7.50;72.81
52957;BME280;38819;42.692;23.342;2024-03-17T03:46:01;95531.31;;;7.53;72.93
52957;BME280;38819;42.692;23.342;2024-03-17T03:48:27;95538.56;;;7.53;73.05
52957;BME280;38819;42.692;23.342;2024-03-17T03:50:52;95549.59;;;7.56;72.99
52957;BME280;38819;42.692;23.342;2024-03-17T03:53:19;95550.69;;;7.55;73.14
52957;BME280;38819;42.692;23.342;2024-03-17T03:55:44;95548.00;;;7.55;73.21
52957;BME280;38819;42.692;23.342;2024-03-17T03:58:10;95551.22;;;7.57;73.02
52957;BME280;38819;42.692;23.342;2024-03-17T04:00:38;95550.16;;;7.58;73.17
52957;BME280;38819;42.692;23.342;2024-03-17T04:03:05;95549.88;;;7.60;72.91
52957;BME280;38819;42.692;23.342;2024-03-17T04:05:30;95556.09;;;7.60;72.91
52957;BME280;38819;42.692;23.342;2024-03-17T04:07:55;95557.66;;;7.56;72.97
52957;BME280;38819;42.692;23.342;2024-03-17T04:10:21;95559.03;;;7.54;72.94
52957;BME280;38819;42.692;23.342;2024-03-17T04:12:47;95554.44;;;7.54;73.06
52957;BME280;38819;42.692;23.342;2024-03-17T04:15:12;95565.16;;;7.44;73.29
52957;BME280;38819;42.692;23.342;2024-03-17T04:17:39;95571.84;;;7.36;73.76
52957;BME280;38819;42.692;23.342;2024-03-17T04:20:05;95573.97;;;7.29;73.94
52957;BME280;38819;42.692;23.342;2024-03-17T04:22:33;95570.50;;;7.29;74.13
52957;BME280;38819;42.692;23.342;2024-03-17T04:24:59;95572.38;;;7.33;73.62
52957;BME280;38819;42.692;23.342;2024-03-17T04:27:25;95583.13;;;7.33;73.51
52957;BME280;38819;42.692;23.342;2024-03-17T04:29:52;95581.81;;;7.41;73.40
52957;BME280;38819;42.692;23.342;2024-03-17T04:32:19;95586.66;;;7.39;73.12
52957;BME280;38819;42.692;23.342;2024-03-17T04:34:44;95586.69;;;7.49;72.81
52957;BME280;38819;42.692;23.342;2024-03-17T04:37:10;95586.97;;;7.53;72.56
52957;BME280;38819;42.692;23.342;2024-03-17T04:39:42;95590.75;;;7.52;72.54
52957;BME280;38819;42.692;23.342;2024-03-17T04:42:08;95590.44;;;7.53;72.38
52957;BME280;38819;42.692;23.342;2024-03-17T04:44:34;95597.72;;;7.58;72.41
52957;BME280;38819;42.692;23.342;2024-03-17T04:46:59;95601.44;;;7.47;72.63
52957;BME280;38819;42.692;23.342;2024-03-17T04:49:24;95597.91;;;7.36;73.39
52957;BME280;38819;42.692;23.342;2024-03-17T04:51:50;95602.22;;;7.37;73.45
52957;BME280;38819;42.692;23.342;2024-03-17T04:54:15;95600.88;;;7.39;73.22
52957;BME280;38819;42.692;23.342;2024-03-17T04:56:41;95608.44;;;7.42;73.03
52957;BME280;38819;42.692;23.342;2024-03-17T04:59:06;95607.88;;;7.35;73.38
52957;BME280;38819;42.692;23.342;2024-03-17T05:01:32;95612.16;;;7.36;73.52
52957;BME280;38819;42.692;23.342;2024-03-17T05:04:02;95617.53;;;7.41;73.61
52957;BME280;38819;42.692;23.342;2024-03-17T05:06:28;95617.03;;;7.45;73.34
52957;BME280;38819;42.692;23.342;2024-03-17T05:08:53;95622.94;;;7.47;73.46
52957;BME280;38819;42.692;23.342;2024-03-17T05:11:19;95620.81;;;7.44;73.22
52957;BME280;38819;42.692;23.342;2024-03-17T05:13:45;95628.06;;;7.53;72.87
52957;BME280;38819;42.692;23.342;2024-03-17T05:16:10;95634.28;;;7.59;72.73
52957;BME280;38819;42.692;23.342;2024-03-17T05:18:36;95630.53;;;7.60;72.57
52957;BME280;38819;42.692;23.342;2024-03-17T05:21:05;95637.53;;;7.66;72.43
52957;BME280;38819;42.692;23.342;2024-03-17T05:23:33;95641.06;;;7.72;72.00
52957;BME280;38819;42.692;23.342;2024-03-17T05:25:58;95636.50;;;7.77;71.79
52957;BME280;38819;42.692;23.342;2024-03-17T05:28:25;95635.97;;;7.70;71.89
52957;BME280;38819;42.692;23.342;2024-03-17T05:30:51;95645.41;;;7.83;71.52
52957;BME280;38819;42.692;23.342;2024-03-17T05:33:18;95644.06;;;7.86;71.51
52957;BME280;38819;42.692;23.342;2024-03-17T05:36:02;95642.19;;;7.91;71.31
52957;BME280;38819;42.692;23.342;2024-03-17T05:38:29;95650.53;;;7.95;71.48
52957;BME280;38819;42.692;23.342;2024-03-17T05:41:02;95639.50;;;7.96;71.38
52957;BME280;38819;42.692;23.342;2024-03-17T05:43:29;95638.19;;;8.04;70.95
52957;BME280;38819;42.692;23.342;2024-03-17T05:45:58;95632.56;;;8.06;71.07
52957;BME280;38819;42.692;23.342;2024-03-17T05:48:23;95633.63;;;8.10;70.72
52957;BME280;38819;42.692;23.342;2024-03-17T05:50:52;95640.91;;;8.25;70.13
52957;BME280;38819;42.692;23.342;2024-03-17T05:53:20;95635.53;;;8.30;69.86
52957;BME280;38819;42.692;23.342;2024-03-17T05:55:46;95635.28;;;8.37;69.29
52957;BME280;38819;42.692;23.342;2024-03-17T05:58:11;95632.59;;;8.37;68.99
52957;BME280;38819;42.692;23.342;2024-03-17T06:00:39;95646.88;;;8.37;68.78
52957;BME280;38819;42.692;23.342;2024-03-17T06:03:05;95648.72;;;8.11;69.38
52957;BME280;38819;42.692;23.342;2024-03-17T06:05:35;95647.66;;;8.12;69.53
52957;BME280;38819;42.692;23.342;2024-03-17T06:08:02;95648.72;;;8.11;69.63
52957;BME280;38819;42.692;23.342;2024-03-17T06:10:32;95644.13;;;8.06;69.67
52957;BME280;38819;42.692;23.342;2024-03-17T06:12:58;95657.28;;;8.03;69.87
52957;BME280;38819;42.692;23.342;2024-03-17T06:15:24;95655.66;;;8.02;69.78
52957;BME280;38819;42.692;23.342;2024-03-17T06:17:51;95657.03;;;8.04;69.46
52957;BME280;38819;42.692;23.342;2024-03-17T06:20:25;95660.22;;;7.96;69.81
52957;BME280;38819;42.692;23.342;2024-03-17T06:22:54;95665.38;;;8.03;69.75
52957;BME280;38819;42.692;23.342;2024-03-17T06:25:20;95663.19;;;7.94;70.10
52957;BME280;38819;42.692;23.342;2024-03-17T06:27:49;95650.78;;;7.83;69.96
52957;BME280;38819;42.692;23.342;2024-03-17T06:30:15;95666.41;;;7.96;70.20
52957;BME280;38819;42.692;23.342;2024-03-17T06:32:41;95669.09;;;7.96;70.06
52957;BME280;38819;42.692;23.342;2024-03-17T06:35:10;95669.94;;;7.97;70.03
52957;BME280;38819;42.692;23.342;2024-03-17T06:37:36;95671.28;;;8.00;69.73
52957;BME280;38819;42.692;23.342;2024-03-17T06:40:02;95670.72;;;7.97;69.95
52957;BME280;38819;42.692;23.342;2024-03-17T06:42:29;95669.94;;;8.02;69.87
52957;BME280;38819;42.692;23.342;2024-03-17T06:44:55;95666.72;;;8.05;69.82
52957;BME280;38819;42.692;23.342;2024-03-17T06:47:20;95680.44;;;8.04;69.94
52957;BME280;38819;42.692;23.342;2024-03-17T06:49:45;95675.91;;;8.25;69.59
52957;BME280;38819;42.692;23.342;2024-03-17T06:52:11;95672.94;;;8.31;69.53
52957;BME280;38819;42.692;23.342;2024-03-17T06:54:36;95674.84;;;8.41;69.21
52957;BME280;38819;42.692;23.342;2024-03-17T06:57:01;95671.69;;;8.60;68.68
52957;BME280;38819;42.692;23.342;2024-03-17T06:59:27;95665.75;;;8.73;68.27
52957;BME280;38819;42.692;23.342;2024-03-17T07:01:52;95678.41;;;8.83;67.86
52957;BME280;38819;42.692;23.342;2024-03-17T07:04:18;95675.19;;;8.96;67.64
52957;BME280;38819;42.692;23.342;2024-03-17T07:06:43;95672.19;;;9.08;67.24
52957;BME280;38819;42.692;23.342;2024-03-17T07:09:09;95669.22;;;9.25;66.96
52957;BME280;38819;42.692;23.342;2024-03-17T07:11:34;95668.13;;;9.26;66.57
52957;BME280;38819;42.692;23.342;2024-03-17T07:14:00;95670.28;;;9.34;66.40
52957;BME280;38819;42.692;23.342;2024-03-17T07:16:26;95672.97;;;9.39;66.01
52957;BME280;38819;42.692;23.342;2024-03-17T07:18:52;95665.09;;;9.53;65.82
52957;BME280;38819;42.692;23.342;2024-03-17T07:21:21;95662.91;;;9.60;65.32
52957;BME280;38819;42.692;23.342;2024-03-17T07:23:47;95661.56;;;9.63;65.54
52957;BME280;38819;42.692;23.342;2024-03-17T07:26:13;95665.53;;;9.81;65.14
52957;BME280;38819;42.692;23.342;2024-03-17T07:28:39;95669.25;;;9.90;64.68
52957;BME280;38819;42.692;23.342;2024-03-17T07:31:06;95674.69;;;9.85;64.39
52957;BME280;38819;42.692;23.342;2024-03-17T07:33:33;95675.22;;;9.87;64.72
52957;BME280;38819;42.692;23.342;2024-03-17T07:35:59;95683.00;;;9.94;64.14
52957;BME280;38819;42.692;23.342;2024-03-17T07:38:29;95667.66;;;9.94;63.60
52957;BME280;38819;42.692;23.342;2024-03-17T07:41:03;95662.25;;;9.94;63.62
52957;BME280;38819;42.692;23.342;2024-03-17T07:43:30;95675.22;;;9.87;63.70
52957;BME280;38819;42.692;23.342;2024-03-17T07:46:04;95681.22;;;9.79;64.31
52957;BME280;38819;42.692;23.342;2024-03-17T07:48:31;95680.97;;;9.60;64.87
52957;BME280;38819;42.692;23.342;2024-03-17T07:50:58;95685.91;;;9.27;65.66
52957;BME280;38819;42.692;23.342;2024-03-17T07:53:26;95688.66;;;9.01;66.54
52957;BME280;38819;42.692;23.342;2024-03-17T07:56:03;95681.63;;;9.00;66.99
52957;BME280;38819;42.692;23.342;2024-03-17T07:58:32;95677.06;;;9.11;66.80
52957;BME280;38819;42.692;23.342;2024-03-17T08:01:02;95683.22;;;9.22;66.88
52957;BME280;38819;42.692;23.342;2024-03-17T08:03:32;95667.06;;;9.32;66.20
52957;BME280;38819;42.692;23.342;2024-03-17T08:05:58;95671.59;;;9.37;66.05
52957;BME280;38819;42.692;23.342;2024-03-17T08:08:24;95672.94;;;9.44;65.38
52957;BME280;38819;42.692;23.342;2024-03-17T08:10:50;95663.50;;;9.42;65.32
52957;BME280;38819;42.692;23.342;2024-03-17T08:13:19;95670.47;;;9.58;64.97
52957;BME280;38819;42.692;23.342;2024-03-17T08:15:46;95673.41;;;9.67;64.57
52957;BME280;38819;42.692;23.342;2024-03-17T08:18:12;95664.31;;;9.42;65.08
52957;BME280;38819;42.692;23.342;2024-03-17T08:20:41;95663.78;;;9.35;65.76
52957;BME280;38819;42.692;23.342;2024-03-17T08:23:12;95664.88;;;9.34;65.95
52957;BME280;38819;42.692;23.342;2024-03-17T08:25:37;95669.97;;;9.51;65.41
52957;BME280;38819;42.692;23.342;2024-03-17T08:28:03;95662.41;;;9.48;64.93
52957;BME280;38819;42.692;23.342;2024-03-17T08:30:29;95659.44;;;9.55;64.97
52957;BME280;38819;42.692;23.342;2024-03-17T08:32:58;95661.84;;;9.61;65.22
52957;BME280;38819;42.692;23.342;2024-03-17T08:35:24;95654.03;;;9.55;65.10
52957;BME280;38819;42.692;23.342;2024-03-17T08:37:49;95659.91;;;9.72;64.92
52957;BME280;38819;42.692;23.342;2024-03-17T08:40:17;95652.31;;;9.85;63.81
52957;BME280;38819;42.692;23.342;2024-03-17T08:42:42;95644.13;;;10.00;63.29
52957;BME280;38819;42.692;23.342;2024-03-17T08:45:10;95646.78;;;10.10;62.90
52957;BME280;38819;42.692;23.342;2024-03-17T08:47:36;95636.78;;;10.16;62.57
52957;BME280;38819;42.692;23.342;2024-03-17T08:50:01;95631.53;;;10.35;62.47
52957;BME280;38819;42.692;23.342;2024-03-17T08:52:29;95633.88;;;10.47;62.03
52957;BME280;38819;42.692;23.342;2024-03-17T08:54:57;95634.31;;;10.59;61.59
52957;BME280;38819;42.692;23.342;2024-03-17T08:57:22;95625.56;;;10.72;61.08
52957;BME280;38819;42.692;23.342;2024-03-17T08:59:48;95631.09;;;10.91;60.86
52957;BME280;38819;42.692;23.342;2024-03-17T09:02:14;95619.50;;;10.86;60.49
52957;BME280;38819;42.692;23.342;2024-03-17T09:04:42;95623.75;;;10.97;60.19
52957;BME280;38819;42.692;23.342;2024-03-17T09:07:08;95626.06;;;11.09;59.86
52957;BME280;38819;42.692;23.342;2024-03-17T09:09:33;95625.03;;;11.29;60.38
52957;BME280;38819;42.692;23.342;2024-03-17T09:11:58;95618.44;;;11.40;59.96
52957;BME280;38819;42.692;23.342;2024-03-17T09:14:24;95612.69;;;11.47;58.85
52957;BME280;38819;42.692;23.342;2024-03-17T09:16:50;95612.91;;;11.50;58.48
52957;BME280;38819;42.692;23.342;2024-03-17T09:19:15;95610.91;;;11.61;58.11
52957;BME280;38819;42.692;23.342;2024-03-17T09:21:41;95605.50;;;11.80;57.89
52957;BME280;38819;42.692;23.342;2024-03-17T09:24:06;95600.81;;;11.91;58.01
52957;BME280;38819;42.692;23.342;2024-03-17T09:26:36;95595.47;;;12.05;57.58
52957;BME280;38819;42.692;23.342;2024-03-17T09:29:04;95601.84;;;12.14;57.36
52957;BME280;38819;42.692;23.342;2024-03-17T09:31:30;95590.13;;;12.19;57.17
52957;BME280;38819;42.692;23.342;2024-03-17T09:33:59;95593.41;;;12.16;56.96
52957;BME280;38819;42.692;23.342;2024-03-17T09:36:24;95590.50;;;12.31;56.70
52957;BME280;38819;42.692;23.342;2024-03-17T09:38:49;95587.44;;;12.38;56.28
52957;BME280;38819;42.692;23.342;2024-03-17T09:41:20;95587.22;;;12.15;56.32
52957;BME280;38819;42.692;23.342;2024-03-17T09:43:47;95581.50;;;12.17;56.02
52957;BME280;38819;42.692;23.342;2024-03-17T09:46:14;95574.38;;;12.21;56.21
52957;BME280;38819;42.692;23.342;2024-03-17T09:48:40;95588.75;;;12.21;55.82
52957;BME280;38819;42.692;23.342;2024-03-17T09:51:05;95589.69;;;12.31;55.76
52957;BME280;38819;42.692;23.342;2024-03-17T09:53:35;95580.88;;;12.39;53.96
52957;BME280;38819;42.692;23.342;2024-03-17T09:56:08;95583.44;;;12.49;52.82
52957;BME280;38819;42.692;23.342;2024-03-17T09:58:34;95583.97;;;12.51;51.41
52957;BME280;38819;42.692;23.342;2024-03-17T10:01:00;95587.31;;;12.62;50.48
52957;BME280;38819;42.692;23.342;2024-03-17T10:03:48;95589.31;;;12.56;51.07
52957;BME280;38819;42.692;23.342;2024-03-17T10:06:30;95579.75;;;12.59;49.21
52957;BME280;38819;42.692;23.342;2024-03-17T10:08:57;95583.50;;;12.63;47.93
52957;BME280;38819;42.692;23.342;2024-03-17T10:11:33;95586.41;;;12.67;48.34
52957;BME280;38819;42.692;23.342;2024-03-17T10:14:03;95584.03;;;12.79;48.00
52957;BME280;38819;42.692;23.342;2024-03-17T10:16:31;95586.66;;;12.84;48.47
52957;BME280;38819;42.692;23.342;2024-03-17T10:21:43;95585.09;;;12.97;47.87
52957;BME280;38819;42.692;23.342;2024-03-17T10:26:41;95586.16;;;12.96;46.84
52957;BME280;38819;42.692;23.342;2024-03-17T10:29:35;95582.78;;;13.04;48.32
52957;BME280;38819;42.692;23.342;2024-03-17T10:32:12;95577.47;;;13.13;47.81
52957;BME280;38819;42.692;23.342;2024-03-17T10:34:44;95580.59;;;13.20;47.51
52957;BME280;38819;42.692;23.342;2024-03-17T10:37:10;95577.59;;;13.22;47.25
52957;BME280;38819;42.692;23.342;2024-03-17T10:39:36;95577.44;;;13.32;46.81
52957;BME280;38819;42.692;23.342;2024-03-17T10:42:04;95569.47;;;13.36;45.83
52957;BME280;38819;42.692;23.342;2024-03-17T10:44:35;95572.72;;;13.51;46.80
52957;BME280;38819;42.692;23.342;2024-03-17T10:47:02;95574.59;;;13.51;44.30
52957;BME280;38819;42.692;23.342;2024-03-17T10:49:34;95572.47;;;13.48;44.29
52957;BME280;38819;42.692;23.342;2024-03-17T10:52:02;95566.34;;;13.56;41.23
52957;BME280;38819;42.692;23.342;2024-03-17T10:54:30;95570.97;;;13.56;41.30
52957;BME280;38819;42.692;23.342;2024-03-17T10:56:57;95573.19;;;13.53;42.82
52957;BME280;38819;42.692;23.342;2024-03-17T10:59:38;95567.88;;;13.62;43.26
52957;BME280;38819;42.692;23.342;2024-03-17T11:02:32;95566.78;;;13.63;43.65
52957;BME280;38819;42.692;23.342;2024-03-17T11:05:20;95563.13;;;13.68;42.99
52957;BME280;38819;42.692;23.342;2024-03-17T11:07:48;95554.06;;;13.73;43.40
52957;BME280;38819;42.692;23.342;2024-03-17T11:10:31;95553.66;;;13.79;43.01
52957;BME280;38819;42.692;23.342;2024-03-17T11:12:58;95556.88;;;13.81;44.99
52957;BME280;38819;42.692;23.342;2024-03-17T11:20:34;95543.19;;;13.86;45.60
52957;BME280;38819;42.692;23.342;2024-03-17T11:23:00;95548.72;;;13.95;45.71
52957;BME280;38819;42.692;23.342;2024-03-17T11:27:58;95539.66;;;13.86;46.61
52957;BME280;38819;42.692;23.342;2024-03-17T11:39:09;95519.94;;;13.94;43.87
52957;BME280;38819;42.692;23.342;2024-03-17T11:41:49;95531.41;;;13.91;43.69
52957;BME280;38819;42.692;23.342;2024-03-17T11:47:04;95520.53;;;14.05;42.76
52957;BME280;38819;42.692;23.342;2024-03-17T11:52:23;95509.03;;;14.08;43.12
52957;BME280;38819;42.692;23.342;2024-03-17T11:54:48;95521.19;;;14.11;43.02
52957;BME280;38819;42.692;23.342;2024-03-17T11:57:22;95507.97;;;14.18;43.31
52957;BME280;38819;42.692;23.342;2024-03-17T11:59:48;95505.16;;;14.23;43.15
52957;BME280;38819;42.692;23.342;2024-03-17T12:02:29;95507.44;;;14.30;42.73
52957;BME280;38819;42.692;23.342;2024-03-17T12:05:00;95511.09;;;14.25;43.10
52957;BME280;38819;42.692;23.342;2024-03-17T12:07:26;95515.28;;;14.31;41.96
52957;BME280;38819;42.692;23.342;2024-03-17T12:09:53;95523.19;;;14.19;42.03
52957;BME280;38819;42.692;23.342;2024-03-17T12:12:21;95514.72;;;14.20;42.00
52957;BME280;38819;42.692;23.342;2024-03-17T12:14:47;95507.25;;;14.26;41.94
52957;BME280;38819;42.692;23.342;2024-03-17T12:17:15;95509.16;;;14.25;42.13
52957;BME280;38819;42.692;23.342;2024-03-17T12:19:40;95530.16;;;14.34;42.09
52957;BME280;38819;42.692;23.342;2024-03-17T12:22:15;95513.38;;;14.32;42.10
52957;BME280;38819;42.692;23.342;2024-03-17T12:24:43;95511.47;;;14.32;42.91
52957;BME280;38819;42.692;23.342;2024-03-17T12:27:17;95508.88;;;14.27;43.49
52957;BME280;38819;42.692;23.342;2024-03-17T12:29:43;95517.81;;;14.27;43.94
52957;BME280;38819;42.692;23.342;2024-03-17T12:32:13;95515.16;;;14.36;43.83
52957;BME280;38819;42.692;23.342;2024-03-17T12:34:39;95513.16;;;14.28;44.17
52957;BME280;38819;42.692;23.342;2024-03-17T12:37:06;95506.28;;;14.22;44.53
52957;BME280;38819;42.692;23.342;2024-03-17T12:39:34;95510.53;;;14.14;45.14
52957;BME280;38819;42.692;23.342;2024-03-17T12:44:38;95499.41;;;14.24;46.27
52957;BME280;38819;42.692;23.342;2024-03-17T12:47:07;95508.38;;;14.25;46.98
52957;BME280;38819;42.692;23.342;2024-03-17T12:49:34;95509.66;;;14.27;47.44
52957;BME280;38819;42.692;23.342;2024-03-17T12:52:00;95509.16;;;14.25;47.88
52957;BME280;38819;42.692;23.342;2024-03-17T12:54:27;95510.66;;;14.32;48.49
52957;BME280;38819;42.692;23.342;2024-03-17T12:57:07;95510.75;;;14.26;48.41
52957;BME280;38819;42.692;23.342;2024-03-17T12:59:51;95507.50;;;14.16;49.34
52957;BME280;38819;42.692;23.342;2024-03-17T13:02:41;95501.28;;;14.15;48.72
52957;BME280;38819;42.692;23.342;2024-03-17T13:05:19;95493.69;;;14.03;49.76
52957;BME280;38819;42.692;23.342;2024-03-17T13:07:46;95496.69;;;14.02;50.04
52957;BME280;38819;42.692;23.342;2024-03-17T13:10:16;95501.94;;;13.98;50.20
52957;BME280;38819;42.692;23.342;2024-03-17T13:12:42;95502.56;;;13.95;49.56
52957;BME280;38819;42.692;23.342;2024-03-17T13:15:16;95493.03;;;13.84;50.20
52957;BME280;38819;42.692;23.342;2024-03-17T13:17:44;95491.09;;;13.84;51.10
52957;BME280;38819;42.692;23.342;2024-03-17T13:20:16;95494.94;;;13.83;51.13
52957;BME280;38819;42.692;23.342;2024-03-17T13:22:45;95495.13;;;13.87;50.76
52957;BME280;38819;42.692;23.342;2024-03-17T13:25:21;95485.31;;;13.77;51.28
52957;BME280;38819;42.692;23.342;2024-03-17T13:27:49;95487.00;;;13.73;51.40
52957;BME280;38819;42.692;23.342;2024-03-17T13:30:17;95492.53;;;13.82;51.09